Ritsu Inoue

Olheiro-Chefe - Vegalta Sendai
21 Out 2027
Quinta-feira
Processo

Personalidade

Adaptabilidade (7) Ambição (3) Controvérsia (5) Lealdade (5) Pressão (11) Profissionalismo (14) Espírito Esportivo (17) Temperamento (19)

Perfil

Estilo de Treinamento Democrático
Licença Continental C
Determinação 9
Gestão de Pessoas 4
Motivação 4
Disciplina 6
Satisfação no Trabalho
100%
Fadiga
0%
Função Olheiro-Chefe
Salário 40.2K p/s
Contrato 14.03.2028

Desempenho

Comportamento Bom
Eficácia do Treinamento
40%
Desenvolvimento do Jogador
30%
Prevenção de Lesões
50%
Implementação Tática
50%

Eventos Recentes

Participou de uma reunião de recrutamento 7d atrás
Recomendou um alvo de transferência 7d atrás
Participou de uma reunião de recrutamento 14d atrás
Recomendou um alvo de transferência 14d atrás
Participou de uma reunião de recrutamento 21d atrás
Recomendou um alvo de transferência 21d atrás
Participou de uma reunião de recrutamento 28d atrás
Recomendou um alvo de transferência 28d atrás

Monitorando agora

136
Jogador Clube Status Habilidade Confiança Observado Última observação Último voto
Sam Nombe Milton Keynes Dons Ativo 108 / 118 40% 1 21.07.2027 -
Rey Manaj Sivasspor Ativo 129 / 129 40% 1 21.07.2027 -
Marcos Cuenca Zaragoza Ativo 124 / 105 40% 1 21.07.2027 -
Bosun Lawal Stoke City Ativo 134 / 120 40% 1 16.02.2027 -
Lucas Da Cunha Como Ativo 130 / 138 40% 1 16.02.2027 -
Tomás Ribeiro Cultural Leonesa Ativo 128 / 113 40% 1 11.02.2027 -
Lukáš Červ Viktoria Plzen Ativo 140 / 132 40% 2 09.02.2027 -
Will Fish Cardiff City Ativo 115 / 121 40% 1 09.02.2027 -
Yushin Otake Albirex Niigata Ativo 82 / 96 62% 1 08.02.2027 Aprovar
James Morris Leyton Orient Ativo 109 / 107 40% 2 07.02.2027 -
Nicolas Madsen Queens Park Rangers Ativo 144 / 139 40% 1 07.02.2027 -
Ki-Jana Hoever Sparta Prague Ativo 140 / 125 40% 1 04.02.2027 -
Milan van Ewijk Mansfield Town Ativo 130 / 136 40% 1 04.02.2027 -
Ilir Krasniqi Polissia Ativo 111 / 106 40% 1 03.02.2027 -
Oliver Skipp Leicester City Ativo 130 / 138 40% 1 03.02.2027 -
Kristoffer Lund Birmingham Ativo 133 / 124 40% 2 02.02.2027 -
Jack Currie Oxford United Ativo 134 / 129 40% 1 02.02.2027 -
Ethan Galbraith Swansea City Ativo 138 / 139 40% 2 01.02.2027 -
Dennis Cirkin Queens Park Rangers Ativo 117 / 133 40% 1 31.01.2027 -
Shea Charles Southampton Ativo 148 / 126 40% 1 31.01.2027 -
Aidan Morris Middlesbrough Ativo 121 / 129 40% 2 29.01.2027 -
Zak Swanson Bradford City Ativo 111 / 106 40% 1 24.01.2027 -
Christos Mouzakitis Hull City Ativo 129 / 138 40% 2 23.01.2027 -
Alexandr Chernikov Krasnodar Ativo 128 / 140 40% 1 21.01.2027 -
Pelle Mattsson Norwich City Ativo 113 / 121 40% 2 20.01.2027 -
Andre Dozzell Doncaster Rovers Ativo 103 / 121 40% 1 20.01.2027 -
Tariq Lamptey Queens Park Rangers Ativo 149 / 137 40% 1 19.01.2027 -
Alassana Jatta Notts County Ativo 120 / 106 40% 1 18.01.2027 -
Derensili Sanches Fernandes Huddersfield Town Ativo 122 / 122 40% 1 11.01.2027 -
Dom Ballard Leyton Orient Ativo 123 / 116 40% 2 04.01.2027 -
Tyler Goodrham Oxford United Ativo 108 / 117 40% 1 02.01.2027 -
Mathias Jørgensen Blackburn Rovers Ativo 130 / 116 40% 1 01.01.2027 -
Kenny Tete Fulham Ativo 130 / 140 40% 1 01.01.2027 -
Kein Sato FC Tokyo Ativo 126 / 128 40% 5 30.12.2026 -
David Ankeye Zeleznicar Pancevo Ativo 104 / 123 40% 1 30.12.2026 -
Tomás González Piast Ativo 123 / 123 40% 5 26.12.2026 -
Callum O'Hare Sheffield United Ativo 126 / 132 40% 2 26.12.2026 -
Aune Heggebø West Bromwich Albion Ativo 123 / 132 40% 3 26.12.2026 -
Julián Quiñones Lokomotiv Moscow Ativo 160 / 148 40% 2 25.12.2026 -
Dávid Strelec Middlesbrough Ativo 144 / 136 40% 1 25.12.2026 -
Nicolás Contín MFK Ruzomberok Ativo 104 / 116 40% 3 22.12.2026 -
Aaron Collins Milton Keynes Dons Ativo 118 / 114 40% 1 22.12.2026 -
Petar Musa Adana Demirspor Ativo 129 / 143 40% 1 22.12.2026 -
Marezi Portsmouth Ativo 112 / 124 40% 2 21.12.2026 -
Everton Bala Levski Ativo 128 / 134 40% 1 20.12.2026 -
Martin Sekulić Ural Ativo 121 / 113 40% 1 18.12.2026 -
Erison Kawasaki Frontale Ativo 141 / 123 40% 1 17.12.2026 -
Scott Twine Bristol City Ativo 131 / 132 40% 1 16.12.2026 -
Alejandro Melo Cibalia Ativo 103 / 125 40% 3 14.12.2026 -
Daniel Vašulín Zbrojovka Brno Ativo 100 / 110 40% 1 14.12.2026 -
Malik Mothersille Stockport County Ativo 112 / 122 40% 1 12.12.2026 -
Cameron Archer Southampton Ativo 120 / 125 40% 1 12.12.2026 -
Razvan Balasa Crvena Zvezda Ativo 163 / 140 40% 4 11.12.2026 Observar
Ramiro Ruiz Rodríguez Atlético Tucumán Ativo 120 / 118 40% 3 08.12.2026 -
Ross McCrorie Bristol City Ativo 132 / 122 40% 2 08.12.2026 -
José Martínes CSKA 1948 Ativo 102 / 102 40% 1 08.12.2026 -
Jack Rudoni Coventry City Ativo 127 / 134 40% 1 06.12.2026 -
Elijah Adebayo Luton Town Ativo 126 / 126 40% 2 03.12.2026 -
Josh Koroma Leyton Orient Ativo 121 / 109 40% 1 03.12.2026 -
Ilyas Ansah Hull City Ativo 141 / 133 40% 1 02.12.2026 -
Emmanuel Dennis Brondby Ativo 124 / 125 40% 1 01.12.2026 -
Yousef Salech Cardiff City Ativo 118 / 134 40% 3 29.11.2026 -
Ross Stewart Southampton Ativo 140 / 116 40% 1 29.11.2026 -
Gabriel Jesus Barcelona Ativo 162 / 149 40% 8 27.11.2026 -
Luka Kurtovic NK Domzale Ativo 119 / 125 40% 2 27.11.2026 -
Agustín Módica Gimnasia y Esgrima Ativo 114 / 119 40% 2 26.11.2026 -
Bertrand Traoré Sunderland Ativo 147 / 132 40% 1 26.11.2026 -
Tommy Conway Middlesbrough Ativo 114 / 123 40% 2 26.11.2026 -
Will Lankshear Middlesbrough Ativo 113 / 122 40% 1 23.11.2026 -
Patson Daka Leicester City Ativo 121 / 122 40% 1 23.11.2026 -
Harry Cornick AFC Wimbledon Ativo 95 / 108 40% 1 22.11.2026 -
Morgan Whittaker Middlesbrough Ativo 143 / 120 40% 1 21.11.2026 -
Tio Cipot NK Maribor Ativo 114 / 111 40% 1 20.11.2026 -
Leo Ceara Kashima Antlers Ativo 144 / 137 40% 3 19.11.2026 -
Yoane Wissa Newcastle United Ativo 151 / 133 40% 1 18.11.2026 -
Antony Alonso Deportivo Riestra Ativo 126 / 124 40% 3 16.11.2026 -
Vegard Erlien Tromso Ativo 118 / 121 40% 1 16.11.2026 -
Ola Brynhildsen Bodo/Glimt Ativo 139 / 133 40% 3 13.11.2026 -
Bamba Dieng Crvena Zvezda Ativo 138 / 122 40% 3 13.11.2026 -
Sota Kitano Luzern Ativo 125 / 117 40% 1 13.11.2026 -
Mutsuki Kato Sanfrecce Hiroshima Ativo 120 / 136 40% 3 11.11.2026 -
Tomás Molina Argentinos Juniors Ativo 130 / 127 40% 1 11.11.2026 -
Diego García Malmo FF Ativo 129 / 127 40% 2 10.11.2026 -
Cho Gue-Sung FC Midtjylland Ativo 136 / 135 40% 1 10.11.2026 -
Ryo Germain Sanfrecce Hiroshima Ativo 125 / 130 40% 1 04.11.2026 -
Dean David Yokohama F. Marinos Ativo 112 / 119 40% 3 02.11.2026 -
Nicolás Cordero Aldosivi Ativo 121 / 122 40% 1 01.11.2026 -
Ignacio Ramírez Newell's Old Boys Ativo 124 / 117 40% 1 01.11.2026 -
Jonás Acevedo Instituto Ativo 124 / 120 40% 1 30.10.2026 -
Santiago Rodríguez Gimnasia y Esgrima Ativo 116 / 118 40% 1 30.10.2026 -
Ivan Sergeev Dinamo Moscow Ativo 140 / 118 40% 2 29.10.2026 -
Luca Martínez Dupuy Godoy Cruz Ativo 125 / 115 40% 1 28.10.2026 -
Yuta Goke Vissel Kobe Ativo 124 / 115 40% 1 27.10.2026 -
Salah Mohsen El Masry Ativo 117 / 124 40% 1 27.10.2026 -
Victor Adeboyejo Ismaily Ativo 105 / 100 40% 1 25.10.2026 -
David Barbona Defensa y Justicia Ativo 114 / 127 40% 1 24.10.2026 -
Sead Hakšabanović Malmo FF Ativo 133 / 131 40% 3 23.10.2026 -
Asahi Uenaka Gamba Osaka Ativo 127 / 119 40% 2 23.10.2026 -
Daiya Tono Yokohama F. Marinos Ativo 121 / 123 40% 4 21.10.2026 -
Ado Onaiwu Urawa Reds Ativo 122 / 108 40% 1 19.10.2026 -
Oleksii Hutsuliak Polissia Ativo 112 / 137 40% 2 16.10.2026 -
Samuel Essende Young Boys Ativo 119 / 116 40% 1 16.10.2026 -
Akito Suzuki Sanfrecce Hiroshima Ativo 116 / 117 40% 1 15.10.2026 -
Omar Faraj Halmstad Ativo 119 / 108 40% 1 12.10.2026 -
Enzo Avaro Odd Ativo 117 / 105 40% 1 12.10.2026 -
Fabricio Rojas Gimnasia y Tiro Ativo 102 / 109 40% 1 11.10.2026 -
Deniz Hümmet Gamba Osaka Ativo 123 / 120 40% 1 10.10.2026 -
Daiju Sasaki Vissel Kobe Ativo 128 / 109 40% 1 07.10.2026 -
Chihiro Konagaya Albirex Niigata Ativo 122 / 113 40% 1 07.10.2026 -
Denzel Jubitana Neftchi Ativo 132 / 122 40% 1 06.10.2026 -
Hansel Zapata Botev Plovdiv Ativo 104 / 99 40% 1 05.10.2026 -
Yudai Kimura Nagoya Grampus Ativo 115 / 102 40% 2 04.10.2026 -
Ola Solbakken FC Nordsjaelland Ativo 129 / 113 40% 1 02.10.2026 -
Daniel Karlsbakk Sarpsborg 08 Ativo 133 / 125 40% 1 01.10.2026 -
Assad Al Hamlawi Universitatea Craiova Ativo 108 / 132 40% 2 30.09.2026 -
Ammar Ramadan DAC Dunajska Streda Ativo 114 / 120 40% 2 30.09.2026 -
Harumi Minamino Urawa Reds Ativo 112 / 115 40% 1 30.09.2026 -
Samuel Anakwe Remo Stars Ativo 86 / 86 40% 1 29.09.2026 -
Kaina Tanimura Yokohama F. Marinos Ativo 119 / 115 40% 2 27.09.2026 -
Erik Prekop Gornik Zabrze Ativo 110 / 114 40% 1 27.09.2026 Mais informações
David Miculescu FCSB Ativo 125 / 117 40% 1 24.09.2026 -
Timothy Zechariah Rivers United Ativo 96 / 103 40% 1 23.09.2026 -
Koki Ogawa Jubilo Iwata Ativo 128 / 117 40% 2 20.09.2026 -
Yuki Kakita Kashima Antlers Ativo 120 / 125 40% 1 20.09.2026 -
Sunday Megwo Abia Warriors Ativo 99 / 109 40% 1 16.09.2026 -
Marcus Vinicius Nagoya Grampus Ativo 109 / 108 40% 1 16.09.2026 -
Nahuel Ulariaga Hapoel Beer Sheva Ativo 119 / 116 40% 1 15.09.2026 -
Derik Lacerda Kawasaki Frontale Ativo 124 / 115 40% 1 15.09.2026 -
Yota Komi Kashiwa Reysol Ativo 117 / 120 40% 1 13.09.2026 -
Youssoufa Moukoko FC Copenhagen Ativo 140 / 138 40% 1 11.09.2026 -
Hiroto Yamada Shonan Bellmare Ativo 108 / 100 40% 1 10.09.2026 -
Matheus Peixoto Jubilo Iwata Ativo 104 / 111 40% 1 10.09.2026 -
Edward Chilufya FC Midtjylland Ativo 131 / 106 40% 1 10.09.2026 -
Kristian Strømland Lien Djurgarden Ativo 133 / 118 40% 1 07.09.2026 -
Jo Sagan Tosu Ativo 92 / 96 58% 1 17.08.2026 -
Jhonatan Candia Barracas Central Ativo 132 / 126 40% 1 02.08.2026 -